createdAt,value
2018-01-17T00:00:55.364Z,0
2018-01-17T00:01:55.537Z,0
2018-01-17T00:02:55.850Z,0
2018-01-17T00:03:56.304Z,0
2018-01-17T00:04:56.419Z,0
2018-01-17T00:05:57.289Z,0
2018-01-17T00:06:55.778Z,0
2018-01-17T00:07:56.640Z,0
2018-01-17T00:08:55.923Z,0
2018-01-17T00:09:55.932Z,0
2018-01-17T00:10:56.090Z,0
2018-01-17T00:11:56.409Z,0
2018-01-17T00:12:56.306Z,0
2018-01-17T00:13:56.623Z,0
2018-01-17T00:14:56.903Z,0
2018-01-17T00:15:57.344Z,0
2018-01-17T00:16:57.504Z,0
2018-01-17T00:17:57.301Z,0
2018-01-17T00:18:56.738Z,0
2018-01-17T00:19:56.985Z,0
2018-01-17T00:20:57.085Z,0
2018-01-17T00:21:57.437Z,0
2018-01-17T00:22:56.924Z,0
2018-01-17T00:23:57.412Z,0
2018-01-17T00:24:57.585Z,0
2018-01-17T00:25:57.508Z,0
2018-01-17T00:26:57.773Z,0
2018-01-17T00:27:57.767Z,0
2018-01-17T00:28:57.847Z,0
2018-01-17T00:29:57.933Z,0
2018-01-17T00:30:58.273Z,0
2018-01-17T00:31:58.776Z,0
2018-01-17T00:32:58.174Z,0
2018-01-17T00:33:58.469Z,0
2018-01-17T00:34:58.501Z,0
2018-01-17T00:35:58.640Z,0
2018-01-17T00:36:59.393Z,0
2018-01-17T00:37:58.750Z,0
2018-01-17T00:38:59.501Z,0
2018-01-17T00:39:59.093Z,0
2018-01-17T00:40:59.189Z,0
2018-01-17T00:41:59.392Z,0
2018-01-17T00:42:59.387Z,0
2018-01-17T00:43:59.607Z,0
2018-01-17T00:44:59.543Z,0
2018-01-17T00:45:59.636Z,0
2018-01-17T00:46:59.829Z,0
2018-01-17T00:48:00.045Z,0
2018-01-17T00:48:59.908Z,0
2018-01-17T00:50:00.679Z,0
2018-01-17T00:51:01.156Z,0
2018-01-17T00:52:00.790Z,0
2018-01-17T00:53:01.818Z,0
2018-01-17T00:54:01.840Z,0
2018-01-17T00:55:01.690Z,0
2018-01-17T00:56:00.447Z,0
2018-01-17T00:57:01.151Z,0
2018-01-17T00:58:00.561Z,0
2018-01-17T00:59:00.778Z,0
2018-01-17T01:01:01.319Z,0
2018-01-17T01:02:01.820Z,0
2018-01-17T01:03:01.135Z,0
2018-01-17T01:04:00.805Z,0
2018-01-17T01:05:01.209Z,0
2018-01-17T01:06:01.591Z,0
2018-01-17T01:07:01.846Z,0
2018-01-17T01:08:02.326Z,0
2018-01-17T01:09:02.051Z,0
2018-01-17T01:10:01.910Z,0
2018-01-17T01:11:02.528Z,0
2018-01-17T01:12:02.561Z,0
2018-01-17T01:13:01.530Z,0
2018-01-17T01:14:02.649Z,0
2018-01-17T01:15:03.191Z,0
2018-01-17T01:16:02.753Z,0
2018-01-17T01:17:03.957Z,0
2018-01-17T01:18:03.484Z,0
2018-01-17T01:19:04.368Z,0
2018-01-17T01:20:03.721Z,0
2018-01-17T01:21:03.723Z,0
2018-01-17T01:22:03.276Z,0
2018-01-17T01:23:03.896Z,0
2018-01-17T01:24:04.064Z,0
2018-01-17T01:25:03.308Z,0
2018-01-17T01:26:03.458Z,0
2018-01-17T01:27:04.032Z,0
2018-01-17T01:28:03.022Z,0
2018-01-17T01:29:03.835Z,0
2018-01-17T01:30:03.734Z,0
2018-01-17T01:31:04.303Z,0
2018-01-17T01:32:04.402Z,0
2018-01-17T01:33:05.328Z,0
2018-01-17T01:34:05.450Z,0
2018-01-17T01:35:05.875Z,0
2018-01-17T01:36:06.002Z,0
2018-01-17T01:37:05.503Z,0
2018-01-17T01:38:06.326Z,0
2018-01-17T01:39:06.366Z,0
2018-01-17T01:40:06.208Z,0
2018-01-17T01:41:06.772Z,0
2018-01-17T01:42:06.280Z,0
2018-01-17T01:43:06.316Z,0
2018-01-17T01:44:07.103Z,0
2018-01-17T01:45:07.035Z,0
2018-01-17T01:46:07.213Z,0
2018-01-17T01:47:07.671Z,0
2018-01-17T01:48:08.130Z,0
2018-01-17T01:49:08.554Z,0
2018-01-17T01:50:08.158Z,0
2018-01-17T01:51:08.030Z,0
2018-01-17T01:52:08.766Z,0
2018-01-17T01:53:08.785Z,0
2018-01-17T01:54:09.275Z,0
2018-01-17T01:55:08.595Z,0
2018-01-17T01:56:09.167Z,0
2018-01-17T01:57:08.621Z,0
2018-01-17T01:58:09.184Z,0
2018-01-17T01:59:11.125Z,0
2018-01-17T02:00:24.379Z,0
2018-01-17T02:01:08.983Z,0
2018-01-17T02:02:12.720Z,0
2018-01-17T02:03:11.594Z,0
2018-01-17T02:04:11.061Z,0
2018-01-17T02:05:10.299Z,0
2018-01-17T02:06:11.369Z,0
2018-01-17T02:07:10.904Z,0
2018-01-17T02:08:10.966Z,0
2018-01-17T02:09:10.960Z,0
2018-01-17T02:10:10.633Z,0
2018-01-17T02:11:10.621Z,0
2018-01-17T02:12:10.369Z,0
2018-01-17T02:13:10.897Z,0
2018-01-17T02:14:11.703Z,0
2018-01-17T02:15:11.208Z,0
2018-01-17T02:16:10.471Z,0
2018-01-17T02:17:11.150Z,0
2018-01-17T02:18:11.084Z,0
2018-01-17T02:19:11.614Z,0
2018-01-17T02:20:12.410Z,0
2018-01-17T02:21:12.371Z,0
2018-01-17T02:22:12.176Z,0
2018-01-17T02:23:11.888Z,0
2018-01-17T02:24:12.745Z,0
2018-01-17T02:25:12.735Z,0
2018-01-17T02:26:12.463Z,0
2018-01-17T02:27:12.210Z,0
2018-01-17T02:28:12.463Z,0
2018-01-17T02:29:11.866Z,0
2018-01-17T02:30:12.146Z,0
2018-01-17T02:31:13.275Z,0
2018-01-17T02:32:12.392Z,0
2018-01-17T02:33:13.056Z,0
2018-01-17T02:34:13.398Z,0
2018-01-17T02:35:12.639Z,0
2018-01-17T02:36:12.910Z,0
2018-01-17T02:37:13.663Z,0
2018-01-17T02:38:13.537Z,0
2018-01-17T02:39:13.268Z,0
2018-01-17T02:40:14.092Z,0
2018-01-17T02:41:13.564Z,0
2018-01-17T02:42:13.577Z,0
2018-01-17T02:43:13.908Z,0
2018-01-17T02:44:14.161Z,0
2018-01-17T02:45:14.141Z,0
2018-01-17T02:46:15.728Z,0
2018-01-17T02:47:14.939Z,0
2018-01-17T02:48:15.203Z,0
2018-01-17T02:49:15.245Z,0
2018-01-17T02:50:15.450Z,0
2018-01-17T02:51:15.903Z,0
2018-01-17T02:52:16.347Z,0
2018-01-17T02:53:16.787Z,0
2018-01-17T02:54:17.499Z,0
2018-01-17T02:55:16.978Z,0
2018-01-17T02:56:16.886Z,0
2018-01-17T02:57:17.342Z,0
2018-01-17T02:58:17.582Z,0
2018-01-17T02:59:16.877Z,0
2018-01-17T03:00:31.721Z,0
2018-01-17T03:01:32.253Z,0
2018-01-17T03:02:32.153Z,0
2018-01-17T03:03:47.215Z,0
2018-01-17T03:04:31.828Z,0
2018-01-17T03:05:32.371Z,0
2018-01-17T03:06:32.873Z,0
2018-01-17T03:07:32.869Z,0
2018-01-17T03:08:32.831Z,0
2018-01-17T03:09:33.286Z,0
2018-01-17T03:10:33.662Z,0
2018-01-17T03:11:33.698Z,0
2018-01-17T03:12:34.219Z,0
2018-01-17T03:13:34.153Z,0
2018-01-17T03:14:34.184Z,0
2018-01-17T03:15:34.361Z,0
2018-01-17T03:16:35.690Z,0
2018-01-17T03:17:34.826Z,0
2018-01-17T03:18:35.257Z,0
2018-01-17T03:19:34.780Z,0
2018-01-17T03:20:35.532Z,0
2018-01-17T03:21:35.950Z,0
2018-01-17T03:22:36.099Z,0
2018-01-17T03:23:35.980Z,0
2018-01-17T03:24:36.119Z,0
2018-01-17T03:25:36.079Z,0
2018-01-17T03:26:36.110Z,0
2018-01-17T03:27:36.256Z,0
2018-01-17T03:28:36.681Z,0
2018-01-17T03:29:36.308Z,0
2018-01-17T03:30:36.759Z,0
2018-01-17T03:31:36.641Z,0
2018-01-17T03:32:36.513Z,0
2018-01-17T03:33:37.317Z,0
2018-01-17T03:34:37.793Z,0
2018-01-17T03:35:37.781Z,0
2018-01-17T03:36:37.480Z,0
2018-01-17T03:37:37.667Z,0
2018-01-17T03:38:37.654Z,0
2018-01-17T03:39:38.389Z,0
2018-01-17T03:40:37.574Z,0
2018-01-17T03:41:38.155Z,0
2018-01-17T03:42:38.132Z,0
2018-01-17T03:43:38.318Z,0
2018-01-17T03:44:38.934Z,0
2018-01-17T03:45:38.345Z,0
2018-01-17T03:46:38.560Z,0
2018-01-17T03:47:39.959Z,0
2018-01-17T03:48:39.869Z,0
2018-01-17T03:49:39.974Z,0
2018-01-17T03:50:39.991Z,0
2018-01-17T03:51:39.644Z,0
2018-01-17T03:52:39.135Z,0
2018-01-17T03:53:39.300Z,0
2018-01-17T03:54:39.340Z,0
2018-01-17T03:55:39.739Z,0
2018-01-17T03:56:39.438Z,0
2018-01-17T03:57:39.981Z,0
2018-01-17T03:58:40.684Z,0
2018-01-17T03:59:39.911Z,0
2018-01-17T04:00:41.182Z,0
2018-01-17T04:01:40.673Z,0
2018-01-17T04:02:40.448Z,0
2018-01-17T04:03:41.053Z,0
2018-01-17T04:04:40.611Z,0
2018-01-17T04:05:41.114Z,0
2018-01-17T04:06:41.244Z,0
2018-01-17T04:07:41.387Z,0
2018-01-17T04:08:41.067Z,0
2018-01-17T04:09:41.254Z,0
2018-01-17T04:10:42.164Z,0
2018-01-17T04:11:41.950Z,0
2018-01-17T04:12:42.072Z,0
2018-01-17T04:13:42.370Z,0
2018-01-17T04:14:41.474Z,0
2018-01-17T04:15:41.911Z,0
2018-01-17T04:16:42.597Z,0
2018-01-17T04:17:42.912Z,0
2018-01-17T04:18:41.867Z,0
2018-01-17T04:19:42.641Z,0
2018-01-17T04:20:43.043Z,0
2018-01-17T04:21:42.679Z,0
2018-01-17T04:22:42.114Z,0
2018-01-17T04:23:42.506Z,0
2018-01-17T04:24:42.898Z,0
2018-01-17T04:25:43.893Z,0
2018-01-17T04:26:43.279Z,0
2018-01-17T04:27:43.618Z,0
2018-01-17T04:28:43.319Z,0
2018-01-17T04:29:42.682Z,0
2018-01-17T04:30:42.343Z,0
2018-01-17T04:31:43.062Z,0
2018-01-17T04:32:42.957Z,0
2018-01-17T04:33:42.826Z,0
2018-01-17T04:34:42.371Z,0
2018-01-17T04:35:42.951Z,0
2018-01-17T04:36:43.119Z,0
2018-01-17T04:37:42.751Z,0
2018-01-17T04:38:43.338Z,0
2018-01-17T04:39:44.205Z,0
2018-01-17T04:40:43.814Z,0
2018-01-17T04:41:43.596Z,0
2018-01-17T04:42:44.182Z,0
2018-01-17T04:43:44.314Z,0
2018-01-17T04:44:44.897Z,0
2018-01-17T04:45:44.499Z,0
2018-01-17T04:46:44.648Z,0
2018-01-17T04:47:44.762Z,0
2018-01-17T04:48:44.902Z,0
2018-01-17T04:49:46.536Z,0
2018-01-17T04:50:47.271Z,0
2018-01-17T04:51:46.838Z,0
2018-01-17T04:52:47.000Z,0
2018-01-17T04:53:46.116Z,0
2018-01-17T04:54:46.581Z,0
2018-01-17T04:55:45.883Z,0
2018-01-17T04:56:46.127Z,0
2018-01-17T04:57:46.117Z,0
2018-01-17T04:58:46.450Z,0
2018-01-17T04:59:46.553Z,0
2018-01-17T05:01:01.337Z,0
2018-01-17T05:01:46.427Z,0
2018-01-17T05:02:46.933Z,0
2018-01-17T05:03:46.937Z,0
2018-01-17T05:04:47.516Z,0
2018-01-17T05:05:47.239Z,0
2018-01-17T05:06:47.286Z,0
2018-01-17T05:07:47.253Z,0
2018-01-17T05:08:47.820Z,0
2018-01-17T05:09:47.202Z,0
2018-01-17T05:10:47.791Z,0
2018-01-17T05:11:47.249Z,0
2018-01-17T05:12:47.743Z,0
2018-01-17T05:13:47.742Z,0
2018-01-17T05:14:48.425Z,0
2018-01-17T05:15:47.297Z,0
2018-01-17T05:16:47.773Z,0
2018-01-17T05:17:47.697Z,0
2018-01-17T05:18:48.037Z,0
2018-01-17T05:19:47.976Z,0
2018-01-17T05:20:48.601Z,0
2018-01-17T05:21:48.347Z,0
2018-01-17T05:22:48.437Z,0
2018-01-17T05:23:48.377Z,0
2018-01-17T05:24:48.174Z,0
2018-01-17T05:25:48.708Z,0
2018-01-17T05:26:50.000Z,0
2018-01-17T05:27:49.238Z,0
2018-01-17T05:28:48.255Z,0
2018-01-17T05:29:49.653Z,0
2018-01-17T05:30:48.860Z,0
2018-01-17T05:31:49.606Z,0
2018-01-17T05:32:49.096Z,0
2018-01-17T05:33:49.307Z,0
2018-01-17T05:34:54.129Z,0
2018-01-17T05:35:54.861Z,0
2018-01-17T05:36:54.387Z,0
2018-01-17T05:37:54.872Z,0
2018-01-17T05:38:54.856Z,0
2018-01-17T05:39:55.314Z,0
2018-01-17T05:40:55.267Z,0
2018-01-17T05:41:55.628Z,0
2018-01-17T05:42:55.564Z,0
2018-01-17T05:43:55.582Z,0
2018-01-17T05:44:56.871Z,0
2018-01-17T05:45:56.704Z,0
2018-01-17T05:46:56.859Z,0
2018-01-17T05:47:56.303Z,0
2018-01-17T05:48:56.552Z,0
2018-01-17T05:49:56.633Z,0
2018-01-17T05:50:56.354Z,0
2018-01-17T05:51:56.129Z,0
2018-01-17T05:52:56.838Z,0
2018-01-17T05:53:57.250Z,0
2018-01-17T05:54:57.842Z,0
2018-01-17T05:55:56.585Z,0
2018-01-17T05:56:56.643Z,0
2018-01-17T05:57:59.223Z,0
2018-01-17T05:58:57.482Z,0
2018-01-17T05:59:57.789Z,0
2018-01-17T06:00:57.674Z,0
2018-01-17T06:01:58.801Z,0
2018-01-17T06:02:58.810Z,0
2018-01-17T06:03:57.795Z,0
2018-01-17T06:04:57.584Z,0
2018-01-17T06:05:57.577Z,0
2018-01-17T06:06:57.989Z,0
2018-01-17T06:07:57.964Z,0
2018-01-17T06:08:58.540Z,0
2018-01-17T06:09:58.750Z,0
2018-01-17T06:10:58.157Z,0
2018-01-17T06:11:58.913Z,0
2018-01-17T06:12:58.743Z,0
2018-01-17T06:13:58.726Z,0
2018-01-17T06:14:58.369Z,0
2018-01-17T06:15:58.787Z,0
2018-01-17T06:16:58.702Z,0
2018-01-17T06:17:59.403Z,0
2018-01-17T06:18:59.387Z,0
2018-01-17T06:19:58.775Z,0
2018-01-17T06:20:59.129Z,0
2018-01-17T06:21:59.397Z,0
2018-01-17T06:22:58.999Z,0
2018-01-17T06:24:02.147Z,0
2018-01-17T06:25:02.968Z,0
2018-01-17T06:26:01.505Z,0
2018-01-17T06:27:00.391Z,0
2018-01-17T06:28:00.775Z,0
2018-01-17T06:29:00.349Z,0
2018-01-17T06:30:00.394Z,0
2018-01-17T06:31:00.367Z,0
2018-01-17T06:31:59.742Z,0
2018-01-17T06:33:00.527Z,0
2018-01-17T06:34:00.465Z,0
2018-01-17T06:35:00.297Z,0
2018-01-17T06:36:00.744Z,0
2018-01-17T06:37:01.120Z,0
2018-01-17T06:38:00.827Z,0
2018-01-17T06:39:01.012Z,0
2018-01-17T06:40:00.956Z,0
2018-01-17T06:41:00.927Z,0
2018-01-17T06:42:01.640Z,0
2018-01-17T06:43:01.239Z,0
2018-01-17T06:44:01.915Z,0
2018-01-17T06:45:02.276Z,0
2018-01-17T06:46:02.847Z,0
2018-01-17T06:47:02.076Z,0
2018-01-17T06:48:16.616Z,0
2018-01-17T06:49:02.039Z,0
2018-01-17T06:50:01.743Z,0
2018-01-17T06:51:02.292Z,0
2018-01-17T06:52:02.465Z,0
2018-01-17T06:53:02.257Z,0
2018-01-17T06:54:02.177Z,0
2018-01-17T06:55:04.131Z,0
2018-01-17T06:56:03.488Z,0
2018-01-17T06:57:02.352Z,0
2018-01-17T06:58:03.191Z,0
2018-01-17T06:59:04.214Z,0
2018-01-17T07:01:03.023Z,0
2018-01-17T07:02:04.189Z,0
2018-01-17T07:03:03.605Z,0
2018-01-17T07:04:04.496Z,0
2018-01-17T07:05:03.873Z,0
2018-01-17T07:06:03.677Z,0
2018-01-17T07:07:04.377Z,0
2018-01-17T07:08:04.295Z,0
2018-01-17T07:09:05.203Z,0
2018-01-17T07:10:06.017Z,0
2018-01-17T07:11:05.749Z,0
2018-01-17T07:12:07.423Z,0
2018-01-17T07:13:07.331Z,0
2018-01-17T07:14:06.160Z,0
2018-01-17T07:15:05.149Z,5
2018-01-17T07:16:06.067Z,5
2018-01-17T07:17:05.540Z,5
2018-01-17T07:18:04.823Z,5
2018-01-17T07:19:04.862Z,5
2018-01-17T07:20:05.537Z,5
2018-01-17T07:21:05.126Z,5
2018-01-17T07:22:06.471Z,5
2018-01-17T07:23:07.630Z,5
2018-01-17T07:24:06.758Z,5
2018-01-17T07:25:05.540Z,5
2018-01-17T07:26:05.998Z,5
2018-01-17T07:27:08.648Z,5
2018-01-17T07:29:07.465Z,5
2018-01-17T07:30:07.005Z,5
2018-01-17T07:31:07.255Z,5
2018-01-17T07:32:07.243Z,5
2018-01-17T07:33:07.020Z,5
2018-01-17T07:34:07.120Z,5
2018-01-17T07:35:07.385Z,5
2018-01-17T07:36:09.731Z,5
2018-01-17T07:37:08.797Z,5
2018-01-17T07:38:09.405Z,5
2018-01-17T07:39:10.132Z,5
2018-01-17T07:40:08.390Z,5
2018-01-17T07:41:24.658Z,10
2018-01-17T07:42:09.479Z,10
2018-01-17T07:43:10.562Z,10
2018-01-17T07:44:09.838Z,10
2018-01-17T07:45:10.077Z,10
2018-01-17T07:46:09.857Z,10
2018-01-17T07:47:10.086Z,10
2018-01-17T07:48:10.174Z,10
2018-01-17T07:49:10.287Z,10
2018-01-17T07:50:10.064Z,10
2018-01-17T07:51:09.569Z,10
2018-01-17T07:52:10.664Z,10
2018-01-17T07:53:24.904Z,5
2018-01-17T07:54:09.663Z,5
2018-01-17T07:55:08.648Z,5
2018-01-17T07:56:08.896Z,5
2018-01-17T07:57:09.597Z,5
2018-01-17T07:58:09.265Z,5
2018-01-17T07:59:09.729Z,5
2018-01-17T08:00:24.003Z,5
2018-01-17T08:01:09.446Z,5
2018-01-17T08:02:09.237Z,10
2018-01-17T08:03:09.044Z,10
2018-01-17T08:04:09.714Z,10
2018-01-17T08:05:10.030Z,10
2018-01-17T08:06:09.434Z,15
2018-01-17T08:07:09.976Z,15
2018-01-17T08:08:09.941Z,15
2018-01-17T08:09:09.744Z,15
2018-01-17T08:10:10.265Z,15
2018-01-17T08:11:09.712Z,15
2018-01-17T08:12:11.146Z,15
2018-01-17T08:13:10.859Z,15
2018-01-17T08:14:10.856Z,20
2018-01-17T08:15:10.056Z,20
2018-01-17T08:16:09.796Z,25
2018-01-17T08:17:10.517Z,25
2018-01-17T08:18:10.665Z,25
2018-01-17T08:19:10.805Z,25
2018-01-17T08:20:10.633Z,25
2018-01-17T08:21:10.606Z,25
2018-01-17T08:22:13.002Z,25
2018-01-17T08:23:11.734Z,30
2018-01-17T08:24:11.369Z,30
2018-01-17T08:25:12.517Z,30
2018-01-17T08:26:11.277Z,30
2018-01-17T08:27:12.053Z,30
2018-01-17T08:28:13.425Z,30
2018-01-17T08:29:12.244Z,30
2018-01-17T08:30:12.335Z,30
2018-01-17T08:31:13.250Z,25
2018-01-17T08:32:13.156Z,20
2018-01-17T08:33:12.818Z,20
2018-01-17T08:34:12.729Z,20
2018-01-17T08:35:13.649Z,15
2018-01-17T08:36:13.308Z,15
2018-01-17T08:37:13.525Z,15
2018-01-17T08:38:13.790Z,15
2018-01-17T08:39:13.513Z,15
2018-01-17T08:40:14.085Z,15
2018-01-17T08:41:13.722Z,15
2018-01-17T08:42:14.273Z,15
2018-01-17T08:43:14.038Z,15
2018-01-17T08:44:13.787Z,10
2018-01-17T08:45:14.029Z,10
2018-01-17T08:46:14.319Z,10
2018-01-17T08:47:14.693Z,10
2018-01-17T08:48:15.081Z,10
2018-01-17T08:49:16.111Z,10
2018-01-17T08:50:15.668Z,10
2018-01-17T08:51:15.667Z,15
2018-01-17T08:52:16.383Z,20
2018-01-17T08:53:17.309Z,20
2018-01-17T08:54:17.358Z,25
2018-01-17T08:55:17.420Z,25
2018-01-17T08:56:16.785Z,30
2018-01-17T08:57:14.581Z,40
2018-01-17T08:58:14.490Z,45
2018-01-17T08:59:15.183Z,55
2018-01-17T09:00:30.711Z,60
2018-01-17T09:01:29.978Z,65
2018-01-17T09:02:29.873Z,75
2018-01-17T09:03:30.296Z,75
2018-01-17T09:04:30.211Z,80
2018-01-17T09:05:30.864Z,80
2018-01-17T09:06:30.573Z,80
2018-01-17T09:07:31.219Z,80
2018-01-17T09:08:33.155Z,85
2018-01-17T09:09:31.768Z,85
2018-01-17T09:10:31.475Z,85
2018-01-17T09:11:31.077Z,80
2018-01-17T09:12:31.090Z,70
2018-01-17T09:13:31.642Z,60
2018-01-17T09:14:31.530Z,65
2018-01-17T09:15:32.081Z,65
2018-01-17T09:16:31.828Z,70
2018-01-17T09:17:32.219Z,75
2018-01-17T09:18:32.600Z,85
2018-01-17T09:19:32.422Z,85
2018-01-17T09:20:34.132Z,85
2018-01-17T09:21:32.996Z,80
2018-01-17T09:22:32.899Z,85
2018-01-17T09:23:33.294Z,80
2018-01-17T09:24:33.393Z,75
2018-01-17T09:25:33.525Z,65
2018-01-17T09:26:33.693Z,65
2018-01-17T09:27:34.370Z,80
2018-01-17T09:28:34.773Z,85
2018-01-17T09:29:34.110Z,80
2018-01-17T09:30:34.379Z,80
2018-01-17T09:31:34.761Z,75
2018-01-17T09:32:34.928Z,75
2018-01-17T09:33:34.646Z,70
2018-01-17T09:34:34.830Z,75
2018-01-17T09:35:35.514Z,75
2018-01-17T09:36:34.821Z,80
2018-01-17T09:37:35.824Z,80
2018-01-17T09:38:35.345Z,80
2018-01-17T09:39:36.251Z,85
2018-01-17T09:40:35.900Z,75
2018-01-17T09:41:35.290Z,70
2018-01-17T09:42:35.914Z,80
2018-01-17T09:43:35.566Z,85
2018-01-17T09:44:36.379Z,95
2018-01-17T09:45:36.422Z,105
2018-01-17T09:46:35.969Z,130
2018-01-17T09:47:36.748Z,110
2018-01-17T09:48:36.868Z,100
2018-01-17T09:49:36.203Z,100
2018-01-17T09:50:36.778Z,95
2018-01-17T09:51:36.565Z,90
2018-01-17T09:52:36.740Z,90
2018-01-17T09:53:37.343Z,80
2018-01-17T09:54:36.896Z,75
2018-01-17T09:55:36.789Z,70
2018-01-17T09:56:38.968Z,80
2018-01-17T09:57:38.468Z,70
2018-01-17T09:58:37.694Z,75
2018-01-17T09:59:39.740Z,75
2018-01-17T10:00:37.759Z,65
2018-01-17T10:01:40.302Z,65
2018-01-17T10:02:38.528Z,80
2018-01-17T10:03:38.760Z,85
2018-01-17T10:04:38.891Z,90
2018-01-17T10:05:39.071Z,85
2018-01-17T10:06:39.295Z,75
2018-01-17T10:07:39.551Z,60
2018-01-17T10:08:40.050Z,60
2018-01-17T10:09:39.863Z,65
2018-01-17T10:10:39.625Z,60
2018-01-17T10:11:40.081Z,55
2018-01-17T10:12:40.414Z,75
2018-01-17T10:13:40.611Z,100
2018-01-17T10:14:40.320Z,130
2018-01-17T10:15:40.329Z,135
2018-01-17T10:16:39.685Z,135
2018-01-17T10:17:40.639Z,140
2018-01-17T10:18:40.491Z,165
2018-01-17T10:19:40.501Z,180
2018-01-17T10:20:39.986Z,170
2018-01-17T10:21:40.600Z,180
2018-01-17T10:22:40.623Z,170
2018-01-17T10:23:40.378Z,160
2018-01-17T10:24:40.706Z,180
2018-01-17T10:25:40.823Z,245
2018-01-17T10:26:40.483Z,270
2018-01-17T10:27:40.930Z,320
2018-01-17T10:28:41.269Z,325
2018-01-17T10:29:40.948Z,300
2018-01-17T10:30:41.531Z,260
2018-01-17T10:31:41.561Z,250
2018-01-17T10:32:42.310Z,235
2018-01-17T10:33:41.911Z,215
2018-01-17T10:34:42.002Z,205
2018-01-17T10:35:41.650Z,210
2018-01-17T10:36:43.094Z,195
2018-01-17T10:37:42.380Z,230
2018-01-17T10:38:41.594Z,285
2018-01-17T10:39:41.802Z,265
2018-01-17T10:40:41.850Z,220
2018-01-17T10:41:42.116Z,220
2018-01-17T10:42:41.704Z,220
2018-01-17T10:43:42.472Z,220
2018-01-17T10:44:42.788Z,255
2018-01-17T10:45:42.311Z,270
2018-01-17T10:46:42.272Z,300
2018-01-17T10:47:42.771Z,280
2018-01-17T10:48:42.501Z,270
2018-01-17T10:49:42.551Z,445
2018-01-17T10:50:42.536Z,250
2018-01-17T10:51:43.295Z,220
2018-01-17T10:52:42.501Z,225
2018-01-17T10:53:42.654Z,220
2018-01-17T10:54:43.376Z,210
2018-01-17T10:55:43.432Z,190
2018-01-17T10:56:44.092Z,190
2018-01-17T10:57:44.241Z,170
2018-01-17T10:58:43.553Z,170
2018-01-17T10:59:44.620Z,190
2018-01-17T11:00:44.111Z,200
2018-01-17T11:01:44.178Z,175
2018-01-17T11:02:44.191Z,170
2018-01-17T11:03:45.207Z,220
2018-01-17T11:04:44.696Z,260
2018-01-17T11:05:45.861Z,235
2018-01-17T11:06:45.354Z,200
2018-01-17T11:07:45.730Z,180
2018-01-17T11:08:45.999Z,170
2018-01-17T11:09:46.201Z,180
2018-01-17T11:10:45.640Z,180
2018-01-17T11:11:45.821Z,155
2018-01-17T11:12:46.128Z,145
2018-01-17T11:13:45.819Z,130
2018-01-17T11:14:46.080Z,110
2018-01-17T11:15:46.046Z,110
2018-01-17T11:16:46.441Z,90
2018-01-17T11:17:46.793Z,90
2018-01-17T11:18:46.866Z,100
2018-01-17T11:19:46.412Z,95
2018-01-17T11:20:47.422Z,90
2018-01-17T11:21:47.187Z,90
2018-01-17T11:22:46.500Z,85
2018-01-17T11:23:46.986Z,70
2018-01-17T11:24:47.534Z,70
2018-01-17T11:25:47.356Z,70
2018-01-17T11:26:47.170Z,75
2018-01-17T11:27:48.303Z,75
2018-01-17T11:28:48.576Z,60
2018-01-17T11:29:47.827Z,65
2018-01-17T11:30:48.274Z,80
2018-01-17T11:31:49.414Z,110
2018-01-17T11:32:49.832Z,130
2018-01-17T11:33:49.327Z,125
2018-01-17T11:34:49.708Z,105
2018-01-17T11:35:48.168Z,120
2018-01-17T11:36:48.214Z,140
2018-01-17T11:37:48.496Z,140
2018-01-17T11:38:49.038Z,145
2018-01-17T11:39:48.935Z,150
2018-01-17T11:40:47.889Z,170
2018-01-17T11:41:47.901Z,195
2018-01-17T11:42:48.780Z,185
2018-01-17T11:43:48.834Z,165
2018-01-17T11:44:48.844Z,165
2018-01-17T11:45:48.504Z,160
2018-01-17T11:46:48.735Z,165
2018-01-17T11:47:48.765Z,165
2018-01-17T11:48:48.432Z,160
2018-01-17T11:49:49.452Z,160
2018-01-17T11:50:49.910Z,160
2018-01-17T11:51:49.204Z,160
2018-01-17T11:52:48.995Z,170
2018-01-17T11:53:49.394Z,150
2018-01-17T11:54:49.257Z,130
2018-01-17T11:55:49.252Z,125
2018-01-17T11:56:49.470Z,120
2018-01-17T11:57:49.403Z,115
2018-01-17T11:58:49.562Z,120
2018-01-17T11:59:49.992Z,110
2018-01-17T12:00:49.564Z,100
2018-01-17T12:01:51.642Z,110
2018-01-17T12:02:49.811Z,95
2018-01-17T12:03:50.345Z,90
2018-01-17T12:04:49.803Z,90
2018-01-17T12:05:50.405Z,95
2018-01-17T12:06:50.292Z,90
2018-01-17T12:07:51.047Z,95
2018-01-17T12:08:50.613Z,100
2018-01-17T12:09:50.929Z,100
2018-01-17T12:10:50.630Z,120
2018-01-17T12:11:51.177Z,155
2018-01-17T12:12:51.310Z,155
2018-01-17T12:13:51.610Z,150
2018-01-17T12:14:52.778Z,140
2018-01-17T12:15:51.972Z,160
2018-01-17T12:16:52.443Z,185
2018-01-17T12:17:53.192Z,170
2018-01-17T12:18:52.923Z,175
2018-01-17T12:19:53.165Z,170
2018-01-17T12:20:54.356Z,175
2018-01-17T12:21:53.538Z,175
2018-01-17T12:22:54.211Z,165
2018-01-17T12:23:53.750Z,155
2018-01-17T12:24:56.437Z,170
2018-01-17T12:25:55.200Z,160
2018-01-17T12:26:55.054Z,170
2018-01-17T12:27:54.647Z,165
2018-01-17T12:28:54.717Z,155
2018-01-17T12:29:55.085Z,145
2018-01-17T12:30:55.070Z,130
2018-01-17T12:31:55.672Z,115
2018-01-17T12:32:55.908Z,100
2018-01-17T12:33:55.114Z,90
2018-01-17T12:34:56.768Z,75
2018-01-17T12:35:56.900Z,70
2018-01-17T12:36:55.590Z,60
2018-01-17T12:37:56.459Z,65
2018-01-17T12:38:57.687Z,60
2018-01-17T12:40:03.918Z,55
2018-01-17T12:41:02.891Z,60
2018-01-17T12:42:02.910Z,60
2018-01-17T12:43:04.106Z,60
2018-01-17T12:44:03.061Z,55
2018-01-17T12:45:03.289Z,50
2018-01-17T12:46:03.706Z,50
2018-01-17T12:47:03.348Z,55
2018-01-17T12:48:03.097Z,60
2018-01-17T12:49:04.675Z,55
2018-01-17T12:50:06.078Z,55
2018-01-17T12:51:05.773Z,55
2018-01-17T12:52:06.136Z,50
2018-01-17T12:53:06.634Z,50
2018-01-17T12:54:06.819Z,45
2018-01-17T12:55:06.736Z,40
2018-01-17T12:56:06.469Z,40
2018-01-17T12:57:05.502Z,40
2018-01-17T12:58:06.228Z,40
2018-01-17T12:59:06.618Z,35
2018-01-17T13:00:21.088Z,30
2018-01-17T13:01:04.644Z,35
2018-01-17T13:02:04.705Z,35
2018-01-17T13:03:03.632Z,35
2018-01-17T13:04:04.220Z,40
2018-01-17T13:05:04.035Z,40
2018-01-17T13:06:04.546Z,45
2018-01-17T13:07:04.580Z,50
2018-01-17T13:08:05.043Z,50
2018-01-17T13:09:04.492Z,45
2018-01-17T13:10:04.198Z,45
2018-01-17T13:11:05.656Z,50
2018-01-17T13:12:04.680Z,55
2018-01-17T13:13:05.344Z,50
2018-01-17T13:14:05.553Z,50
2018-01-17T13:15:04.677Z,45
2018-01-17T13:16:04.908Z,45
2018-01-17T13:18:04.978Z,45
2018-01-17T13:19:04.969Z,45
2018-01-17T13:20:04.887Z,40
2018-01-17T13:21:04.474Z,40
2018-01-17T13:22:05.601Z,40
2018-01-17T13:23:06.175Z,40
2018-01-17T13:24:04.622Z,50
2018-01-17T13:25:04.993Z,55
2018-01-17T13:26:05.530Z,50
2018-01-17T13:27:05.811Z,50
2018-01-17T13:28:05.617Z,50
2018-01-17T13:29:05.848Z,50
2018-01-17T13:30:06.837Z,50
2018-01-17T13:31:05.069Z,50
2018-01-17T13:32:05.864Z,50
2018-01-17T13:33:06.148Z,50
2018-01-17T13:34:06.612Z,55
2018-01-17T13:35:07.526Z,55
2018-01-17T13:36:07.423Z,60
2018-01-17T13:37:07.267Z,60
2018-01-17T13:38:21.952Z,50
2018-01-17T13:39:07.452Z,55
2018-01-17T13:40:08.026Z,50
2018-01-17T13:41:07.647Z,40
2018-01-17T13:42:07.297Z,40
2018-01-17T13:43:08.308Z,45
2018-01-17T13:44:07.605Z,45
2018-01-17T13:45:22.861Z,45
2018-01-17T13:46:22.495Z,50
2018-01-17T13:47:23.299Z,50
2018-01-17T13:48:37.620Z,45
2018-01-17T13:49:22.481Z,45
2018-01-17T13:50:22.873Z,55
2018-01-17T13:51:23.231Z,50
2018-01-17T13:52:22.855Z,55
2018-01-17T13:53:23.051Z,70
2018-01-17T13:54:23.090Z,70
2018-01-17T13:55:22.675Z,70
2018-01-17T13:56:23.256Z,75
2018-01-17T13:57:24.653Z,75
2018-01-17T13:58:25.307Z,75
2018-01-17T13:59:37.453Z,80
2018-01-17T14:00:32.894Z,80
2018-01-17T14:01:32.472Z,80
2018-01-17T14:02:32.660Z,80
2018-01-17T14:03:32.610Z,85
2018-01-17T14:04:35.011Z,90
2018-01-17T14:05:34.217Z,90
2018-01-17T14:06:34.935Z,90
2018-01-17T14:07:33.643Z,80
2018-01-17T14:08:34.027Z,75
2018-01-17T14:09:33.687Z,75
2018-01-17T14:10:33.704Z,80
2018-01-17T14:11:35.709Z,85
2018-01-17T14:12:36.204Z,85
2018-01-17T14:13:36.982Z,90
2018-01-17T14:14:33.931Z,85
2018-01-17T14:15:34.544Z,85
2018-01-17T14:16:34.866Z,90
2018-01-17T14:17:34.740Z,85
2018-01-17T14:18:34.085Z,80
2018-01-17T14:19:35.699Z,80
2018-01-17T14:20:36.049Z,85
2018-01-17T14:21:36.654Z,85
2018-01-17T14:22:36.204Z,85
2018-01-17T14:23:37.129Z,80
2018-01-17T14:24:36.649Z,80
2018-01-17T14:26:43.452Z,75
2018-01-17T14:27:43.114Z,80
2018-01-17T14:28:44.577Z,85
2018-01-17T14:29:44.286Z,80
2018-01-17T14:30:43.830Z,75
2018-01-17T14:31:42.983Z,75
2018-01-17T14:32:57.238Z,65
2018-01-17T14:33:42.412Z,60
2018-01-17T14:34:44.793Z,55
2018-01-17T14:35:43.923Z,60